sensor_id;sensor_type;location;lat;lon;timestamp;P1;durP1;ratioP1;P2;durP2;ratioP2
38797;SDS011;24546;52.240;16.826;2022-11-18T00:02:19;32.42;;;19.83;;
38797;SDS011;24546;52.240;16.826;2022-11-18T00:07:21;33.10;;;20.67;;
38797;SDS011;24546;52.240;16.826;2022-11-18T00:12:21;37.03;;;22.00;;
38797;SDS011;24546;52.240;16.826;2022-11-18T00:17:42;36.08;;;20.88;;
38797;SDS011;24546;52.240;16.826;2022-11-18T00:22:44;33.33;;;20.23;;
38797;SDS011;24546;52.240;16.826;2022-11-18T00:27:45;35.58;;;20.63;;
38797;SDS011;24546;52.240;16.826;2022-11-18T00:32:46;30.83;;;19.08;;
38797;SDS011;24546;52.240;16.826;2022-11-18T00:37:47;33.78;;;18.95;;
38797;SDS011;24546;52.240;16.826;2022-11-18T00:42:50;32.60;;;19.40;;
38797;SDS011;24546;52.240;16.826;2022-11-18T00:47:56;34.63;;;20.50;;
38797;SDS011;24546;52.240;16.826;2022-11-18T00:52:57;32.38;;;19.92;;
38797;SDS011;24546;52.240;16.826;2022-11-18T00:57:59;35.28;;;20.27;;
38797;SDS011;24546;52.240;16.826;2022-11-18T01:03:00;33.25;;;19.75;;
38797;SDS011;24546;52.240;16.826;2022-11-18T01:08:02;32.72;;;19.52;;
38797;SDS011;24546;52.240;16.826;2022-11-18T01:13:04;31.63;;;18.98;;
38797;SDS011;24546;52.240;16.826;2022-11-18T01:18:20;33.53;;;20.77;;
38797;SDS011;24546;52.240;16.826;2022-11-18T01:23:29;36.08;;;18.95;;
38797;SDS011;24546;52.240;16.826;2022-11-18T01:28:32;33.78;;;19.70;;
38797;SDS011;24546;52.240;16.826;2022-11-18T01:33:33;33.85;;;19.33;;
38797;SDS011;24546;52.240;16.826;2022-11-18T01:38:35;32.90;;;19.63;;
38797;SDS011;24546;52.240;16.826;2022-11-18T01:43:50;32.50;;;19.48;;
38797;SDS011;24546;52.240;16.826;2022-11-18T01:54:12;29.80;;;17.88;;
38797;SDS011;24546;52.240;16.826;2022-11-18T01:59:26;28.10;;;17.05;;
38797;SDS011;24546;52.240;16.826;2022-11-18T02:04:32;30.48;;;17.83;;
38797;SDS011;24546;52.240;16.826;2022-11-18T02:09:35;29.77;;;16.83;;
38797;SDS011;24546;52.240;16.826;2022-11-18T02:14:39;34.38;;;19.48;;
38797;SDS011;24546;52.240;16.826;2022-11-18T02:41:53;30.25;;;18.40;;
38797;SDS011;24546;52.240;16.826;2022-11-18T02:47:00;26.02;;;15.90;;
38797;SDS011;24546;52.240;16.826;2022-11-18T02:52:04;30.33;;;17.27;;
38797;SDS011;24546;52.240;16.826;2022-11-18T02:57:07;28.02;;;16.23;;
38797;SDS011;24546;52.240;16.826;2022-11-18T03:02:13;27.55;;;16.70;;
38797;SDS011;24546;52.240;16.826;2022-11-18T03:07:17;29.55;;;17.40;;
38797;SDS011;24546;52.240;16.826;2022-11-18T03:12:42;28.70;;;17.23;;
38797;SDS011;24546;52.240;16.826;2022-11-18T03:23:07;35.22;;;18.38;;
38797;SDS011;24546;52.240;16.826;2022-11-18T03:33:38;33.25;;;19.02;;
38797;SDS011;24546;52.240;16.826;2022-11-18T03:38:46;33.95;;;19.23;;
38797;SDS011;24546;52.240;16.826;2022-11-18T03:43:53;31.98;;;18.75;;
38797;SDS011;24546;52.240;16.826;2022-11-18T03:49:01;36.40;;;19.88;;
38797;SDS011;24546;52.240;16.826;2022-11-18T03:54:11;33.55;;;19.55;;
38797;SDS011;24546;52.240;16.826;2022-11-18T03:59:23;38.42;;;20.70;;
38797;SDS011;24546;52.240;16.826;2022-11-18T04:04:30;31.55;;;17.83;;
38797;SDS011;24546;52.240;16.826;2022-11-18T04:09:36;33.33;;;19.80;;
38797;SDS011;24546;52.240;16.826;2022-11-18T04:14:48;40.75;;;22.17;;
38797;SDS011;24546;52.240;16.826;2022-11-18T04:19:51;36.58;;;20.77;;
38797;SDS011;24546;52.240;16.826;2022-11-18T04:24:52;39.75;;;21.40;;
38797;SDS011;24546;52.240;16.826;2022-11-18T04:29:53;36.97;;;21.27;;
38797;SDS011;24546;52.240;16.826;2022-11-18T04:34:54;35.10;;;19.95;;
38797;SDS011;24546;52.240;16.826;2022-11-18T04:39:55;38.90;;;20.55;;
38797;SDS011;24546;52.240;16.826;2022-11-18T04:44:56;36.63;;;20.42;;
38797;SDS011;24546;52.240;16.826;2022-11-18T04:50:00;39.03;;;20.95;;
38797;SDS011;24546;52.240;16.826;2022-11-18T04:55:04;34.78;;;19.70;;
38797;SDS011;24546;52.240;16.826;2022-11-18T05:00:05;35.28;;;20.13;;
38797;SDS011;24546;52.240;16.826;2022-11-18T05:05:09;35.20;;;19.80;;
38797;SDS011;24546;52.240;16.826;2022-11-18T05:10:10;37.25;;;20.40;;
38797;SDS011;24546;52.240;16.826;2022-11-18T05:15:11;38.70;;;20.27;;
38797;SDS011;24546;52.240;16.826;2022-11-18T05:20:12;32.42;;;18.83;;
38797;SDS011;24546;52.240;16.826;2022-11-18T05:25:13;30.80;;;17.02;;
38797;SDS011;24546;52.240;16.826;2022-11-18T05:30:14;32.40;;;18.27;;
38797;SDS011;24546;52.240;16.826;2022-11-18T05:35:15;33.08;;;17.40;;
38797;SDS011;24546;52.240;16.826;2022-11-18T05:40:16;30.98;;;19.15;;
38797;SDS011;24546;52.240;16.826;2022-11-18T05:45:17;33.35;;;18.23;;
38797;SDS011;24546;52.240;16.826;2022-11-18T05:50:19;30.42;;;17.98;;
38797;SDS011;24546;52.240;16.826;2022-11-18T05:55:27;32.45;;;17.33;;
38797;SDS011;24546;52.240;16.826;2022-11-18T06:00:32;36.88;;;19.20;;
38797;SDS011;24546;52.240;16.826;2022-11-18T06:05:34;28.83;;;15.55;;
38797;SDS011;24546;52.240;16.826;2022-11-18T06:10:35;29.38;;;15.50;;
38797;SDS011;24546;52.240;16.826;2022-11-18T06:15:38;37.53;;;20.02;;
38797;SDS011;24546;52.240;16.826;2022-11-18T06:20:44;25.98;;;15.80;;
38797;SDS011;24546;52.240;16.826;2022-11-18T06:25:45;26.95;;;15.27;;
38797;SDS011;24546;52.240;16.826;2022-11-18T06:30:49;28.58;;;15.57;;
38797;SDS011;24546;52.240;16.826;2022-11-18T06:35:50;32.42;;;18.00;;
38797;SDS011;24546;52.240;16.826;2022-11-18T06:40:51;36.55;;;20.20;;
38797;SDS011;24546;52.240;16.826;2022-11-18T06:45:52;49.25;;;24.98;;
38797;SDS011;24546;52.240;16.826;2022-11-18T06:51:15;54.63;;;26.05;;
38797;SDS011;24546;52.240;16.826;2022-11-18T06:56:17;35.70;;;19.23;;
38797;SDS011;24546;52.240;16.826;2022-11-18T07:01:21;42.10;;;23.35;;
38797;SDS011;24546;52.240;16.826;2022-11-18T07:06:27;42.83;;;23.98;;
38797;SDS011;24546;52.240;16.826;2022-11-18T07:11:30;46.65;;;25.80;;
38797;SDS011;24546;52.240;16.826;2022-11-18T07:16:32;47.78;;;24.55;;
38797;SDS011;24546;52.240;16.826;2022-11-18T07:21:34;55.05;;;30.30;;
38797;SDS011;24546;52.240;16.826;2022-11-18T07:26:38;53.67;;;28.45;;
38797;SDS011;24546;52.240;16.826;2022-11-18T07:31:39;58.75;;;31.17;;
38797;SDS011;24546;52.240;16.826;2022-11-18T07:36:40;43.95;;;24.48;;
38797;SDS011;24546;52.240;16.826;2022-11-18T07:41:41;39.35;;;21.42;;
38797;SDS011;24546;52.240;16.826;2022-11-18T07:46:42;31.80;;;19.08;;
38797;SDS011;24546;52.240;16.826;2022-11-18T07:51:43;56.85;;;25.27;;
38797;SDS011;24546;52.240;16.826;2022-11-18T07:56:44;45.72;;;20.75;;
38797;SDS011;24546;52.240;16.826;2022-11-18T08:01:45;38.83;;;20.08;;
38797;SDS011;24546;52.240;16.826;2022-11-18T08:06:46;47.83;;;25.08;;
38797;SDS011;24546;52.240;16.826;2022-11-18T08:11:46;38.55;;;20.08;;
38797;SDS011;24546;52.240;16.826;2022-11-18T08:16:47;31.85;;;17.25;;
38797;SDS011;24546;52.240;16.826;2022-11-18T08:21:48;25.50;;;15.30;;
38797;SDS011;24546;52.240;16.826;2022-11-18T08:26:49;27.52;;;14.95;;
38797;SDS011;24546;52.240;16.826;2022-11-18T08:31:50;28.67;;;15.65;;
38797;SDS011;24546;52.240;16.826;2022-11-18T08:36:51;24.25;;;13.23;;
38797;SDS011;24546;52.240;16.826;2022-11-18T08:41:52;36.33;;;16.17;;
38797;SDS011;24546;52.240;16.826;2022-11-18T08:46:52;28.10;;;13.23;;
38797;SDS011;24546;52.240;16.826;2022-11-18T08:51:53;22.75;;;11.60;;
38797;SDS011;24546;52.240;16.826;2022-11-18T08:56:54;15.68;;;9.07;;
38797;SDS011;24546;52.240;16.826;2022-11-18T09:01:55;13.52;;;7.70;;
38797;SDS011;24546;52.240;16.826;2022-11-18T09:06:56;9.82;;;7.32;;
38797;SDS011;24546;52.240;16.826;2022-11-18T09:11:57;12.95;;;7.22;;
38797;SDS011;24546;52.240;16.826;2022-11-18T09:16:58;11.23;;;7.05;;
38797;SDS011;24546;52.240;16.826;2022-11-18T09:21:58;12.25;;;7.10;;
38797;SDS011;24546;52.240;16.826;2022-11-18T09:27:03;18.80;;;9.65;;
38797;SDS011;24546;52.240;16.826;2022-11-18T09:32:06;59.15;;;19.98;;
38797;SDS011;24546;52.240;16.826;2022-11-18T09:37:07;81.63;;;29.65;;
38797;SDS011;24546;52.240;16.826;2022-11-18T09:52:43;43.70;;;18.15;;
38797;SDS011;24546;52.240;16.826;2022-11-18T09:57:47;39.75;;;19.90;;
38797;SDS011;24546;52.240;16.826;2022-11-18T10:13:26;20.80;;;10.80;;
38797;SDS011;24546;52.240;16.826;2022-11-18T10:24:01;10.00;;;5.50;;
38797;SDS011;24546;52.240;16.826;2022-11-18T10:29:08;6.07;;;4.22;;
38797;SDS011;24546;52.240;16.826;2022-11-18T10:34:10;9.18;;;5.03;;
38797;SDS011;24546;52.240;16.826;2022-11-18T10:39:17;9.35;;;6.45;;
38797;SDS011;24546;52.240;16.826;2022-11-18T10:44:51;8.30;;;4.88;;
38797;SDS011;24546;52.240;16.826;2022-11-18T10:49:45;7.50;;;4.20;;
38797;SDS011;24546;52.240;16.826;2022-11-18T10:55:04;12.15;;;5.85;;
38797;SDS011;24546;52.240;16.826;2022-11-18T11:05:40;6.90;;;4.90;;
38797;SDS011;24546;52.240;16.826;2022-11-18T11:10:41;6.40;;;4.55;;
38797;SDS011;24546;52.240;16.826;2022-11-18T11:16:00;11.07;;;5.80;;
38797;SDS011;24546;52.240;16.826;2022-11-18T11:36:33;14.90;;;7.55;;
38797;SDS011;24546;52.240;16.826;2022-11-18T11:41:53;9.70;;;5.60;;
38797;SDS011;24546;52.240;16.826;2022-11-18T11:47:41;13.05;;;7.43;;
38797;SDS011;24546;52.240;16.826;2022-11-18T11:58:16;12.43;;;8.18;;
38797;SDS011;24546;52.240;16.826;2022-11-18T12:08:31;21.45;;;11.90;;
38797;SDS011;24546;52.240;16.826;2022-11-18T12:18:39;17.55;;;11.02;;
38797;SDS011;24546;52.240;16.826;2022-11-18T12:23:48;19.35;;;10.63;;
38797;SDS011;24546;52.240;16.826;2022-11-18T12:29:30;13.98;;;8.48;;
38797;SDS011;24546;52.240;16.826;2022-11-18T12:34:41;10.02;;;7.00;;
38797;SDS011;24546;52.240;16.826;2022-11-18T12:39:46;14.43;;;7.60;;
38797;SDS011;24546;52.240;16.826;2022-11-18T12:45:36;11.40;;;7.37;;
38797;SDS011;24546;52.240;16.826;2022-11-18T12:50:46;11.38;;;6.50;;
38797;SDS011;24546;52.240;16.826;2022-11-18T12:55:49;14.70;;;9.25;;
38797;SDS011;24546;52.240;16.826;2022-11-18T13:01:02;22.63;;;14.25;;
38797;SDS011;24546;52.240;16.826;2022-11-18T13:11:23;17.55;;;9.95;;
38797;SDS011;24546;52.240;16.826;2022-11-18T13:16:47;17.38;;;10.32;;
38797;SDS011;24546;52.240;16.826;2022-11-18T13:22:15;13.70;;;8.43;;
38797;SDS011;24546;52.240;16.826;2022-11-18T13:27:50;12.00;;;7.20;;
38797;SDS011;24546;52.240;16.826;2022-11-18T13:33:10;11.25;;;6.53;;
38797;SDS011;24546;52.240;16.826;2022-11-18T13:38:18;7.93;;;5.75;;
38797;SDS011;24546;52.240;16.826;2022-11-18T13:43:24;12.50;;;7.25;;
38797;SDS011;24546;52.240;16.826;2022-11-18T13:48:26;11.02;;;7.53;;
38797;SDS011;24546;52.240;16.826;2022-11-18T13:53:32;16.42;;;10.50;;
38797;SDS011;24546;52.240;16.826;2022-11-18T14:09:01;16.55;;;9.98;;
38797;SDS011;24546;52.240;16.826;2022-11-18T14:14:10;24.70;;;13.88;;
38797;SDS011;24546;52.240;16.826;2022-11-18T14:19:30;13.90;;;8.73;;
38797;SDS011;24546;52.240;16.826;2022-11-18T14:24:32;17.10;;;10.40;;
38797;SDS011;24546;52.240;16.826;2022-11-18T14:29:38;23.75;;;13.40;;
38797;SDS011;24546;52.240;16.826;2022-11-18T14:35:00;19.52;;;10.43;;
38797;SDS011;24546;52.240;16.826;2022-11-18T14:40:03;30.83;;;16.65;;
38797;SDS011;24546;52.240;16.826;2022-11-18T14:45:05;23.90;;;12.80;;
38797;SDS011;24546;52.240;16.826;2022-11-18T14:50:13;24.92;;;13.85;;
38797;SDS011;24546;52.240;16.826;2022-11-18T14:55:14;25.98;;;13.43;;
38797;SDS011;24546;52.240;16.826;2022-11-18T15:00:17;27.98;;;15.82;;
38797;SDS011;24546;52.240;16.826;2022-11-18T15:05:19;29.60;;;14.65;;
38797;SDS011;24546;52.240;16.826;2022-11-18T15:10:20;28.10;;;14.68;;
38797;SDS011;24546;52.240;16.826;2022-11-18T15:15:21;29.45;;;16.95;;
38797;SDS011;24546;52.240;16.826;2022-11-18T15:20:22;18.58;;;11.50;;
38797;SDS011;24546;52.240;16.826;2022-11-18T15:25:23;16.92;;;9.10;;
38797;SDS011;24546;52.240;16.826;2022-11-18T15:30:25;21.17;;;10.35;;
38797;SDS011;24546;52.240;16.826;2022-11-18T15:35:26;14.82;;;9.05;;
38797;SDS011;24546;52.240;16.826;2022-11-18T15:40:27;15.10;;;8.30;;
38797;SDS011;24546;52.240;16.826;2022-11-18T15:45:28;22.27;;;13.63;;
38797;SDS011;24546;52.240;16.826;2022-11-18T15:50:29;40.97;;;20.83;;
38797;SDS011;24546;52.240;16.826;2022-11-18T15:55:30;110.32;;;44.28;;
38797;SDS011;24546;52.240;16.826;2022-11-18T16:00:31;411.90;;;148.85;;
38797;SDS011;24546;52.240;16.826;2022-11-18T16:05:32;442.50;;;165.57;;
38797;SDS011;24546;52.240;16.826;2022-11-18T16:10:33;72.38;;;37.88;;
38797;SDS011;24546;52.240;16.826;2022-11-18T16:15:53;29.65;;;14.48;;
38797;SDS011;24546;52.240;16.826;2022-11-18T16:20:57;103.88;;;45.20;;
38797;SDS011;24546;52.240;16.826;2022-11-18T16:25:59;164.02;;;79.55;;
38797;SDS011;24546;52.240;16.826;2022-11-18T16:31:00;144.10;;;59.97;;
38797;SDS011;24546;52.240;16.826;2022-11-18T16:36:26;78.13;;;38.30;;
38797;SDS011;24546;52.240;16.826;2022-11-18T16:41:27;92.57;;;46.45;;
38797;SDS011;24546;52.240;16.826;2022-11-18T16:46:31;64.95;;;28.67;;
38797;SDS011;24546;52.240;16.826;2022-11-18T16:51:33;70.55;;;33.13;;
38797;SDS011;24546;52.240;16.826;2022-11-18T16:56:35;53.17;;;30.33;;
38797;SDS011;24546;52.240;16.826;2022-11-18T17:01:36;73.07;;;29.08;;
38797;SDS011;24546;52.240;16.826;2022-11-18T17:06:38;69.30;;;29.55;;
38797;SDS011;24546;52.240;16.826;2022-11-18T17:11:40;58.75;;;24.83;;
38797;SDS011;24546;52.240;16.826;2022-11-18T17:16:41;89.28;;;40.80;;
38797;SDS011;24546;52.240;16.826;2022-11-18T17:21:42;79.38;;;35.53;;
38797;SDS011;24546;52.240;16.826;2022-11-18T17:26:44;62.10;;;34.63;;
38797;SDS011;24546;52.240;16.826;2022-11-18T17:31:45;37.40;;;19.70;;
38797;SDS011;24546;52.240;16.826;2022-11-18T17:36:46;107.80;;;55.15;;
38797;SDS011;24546;52.240;16.826;2022-11-18T17:41:47;93.75;;;45.63;;
38797;SDS011;24546;52.240;16.826;2022-11-18T17:47:14;67.13;;;33.88;;
38797;SDS011;24546;52.240;16.826;2022-11-18T17:52:15;51.55;;;28.08;;
38797;SDS011;24546;52.240;16.826;2022-11-18T17:57:18;51.17;;;29.15;;
38797;SDS011;24546;52.240;16.826;2022-11-18T18:02:19;68.72;;;38.70;;
38797;SDS011;24546;52.240;16.826;2022-11-18T18:07:20;55.50;;;34.28;;
38797;SDS011;24546;52.240;16.826;2022-11-18T18:12:21;27.17;;;15.93;;
38797;SDS011;24546;52.240;16.826;2022-11-18T18:17:41;35.60;;;14.45;;
38797;SDS011;24546;52.240;16.826;2022-11-18T18:22:42;25.95;;;14.23;;
38797;SDS011;24546;52.240;16.826;2022-11-18T18:27:43;24.80;;;13.45;;
38797;SDS011;24546;52.240;16.826;2022-11-18T18:32:44;22.90;;;13.15;;
38797;SDS011;24546;52.240;16.826;2022-11-18T18:37:45;27.88;;;15.68;;
38797;SDS011;24546;52.240;16.826;2022-11-18T18:42:47;21.67;;;13.93;;
38797;SDS011;24546;52.240;16.826;2022-11-18T18:47:48;28.75;;;16.95;;
38797;SDS011;24546;52.240;16.826;2022-11-18T18:52:49;27.73;;;15.05;;
38797;SDS011;24546;52.240;16.826;2022-11-18T18:57:50;30.77;;;18.10;;
38797;SDS011;24546;52.240;16.826;2022-11-18T19:02:51;33.45;;;17.48;;
38797;SDS011;24546;52.240;16.826;2022-11-18T19:07:52;27.20;;;15.63;;
38797;SDS011;24546;52.240;16.826;2022-11-18T19:12:53;27.25;;;17.48;;
38797;SDS011;24546;52.240;16.826;2022-11-18T19:17:54;29.67;;;17.98;;
38797;SDS011;24546;52.240;16.826;2022-11-18T19:22:57;24.42;;;14.55;;
38797;SDS011;24546;52.240;16.826;2022-11-18T19:27:59;27.15;;;16.13;;
38797;SDS011;24546;52.240;16.826;2022-11-18T19:33:00;29.60;;;16.95;;
38797;SDS011;24546;52.240;16.826;2022-11-18T19:38:03;23.25;;;13.77;;
38797;SDS011;24546;52.240;16.826;2022-11-18T19:43:04;26.13;;;13.15;;
38797;SDS011;24546;52.240;16.826;2022-11-18T19:48:08;19.27;;;12.15;;
38797;SDS011;24546;52.240;16.826;2022-11-18T19:53:10;21.50;;;13.07;;
38797;SDS011;24546;52.240;16.826;2022-11-18T19:58:30;22.70;;;11.93;;
38797;SDS011;24546;52.240;16.826;2022-11-18T20:03:33;19.85;;;11.98;;
38797;SDS011;24546;52.240;16.826;2022-11-18T20:08:34;21.92;;;12.45;;
38797;SDS011;24546;52.240;16.826;2022-11-18T20:13:37;22.17;;;11.90;;
38797;SDS011;24546;52.240;16.826;2022-11-18T20:18:38;22.50;;;14.10;;
38797;SDS011;24546;52.240;16.826;2022-11-18T20:23:41;19.38;;;11.15;;
38797;SDS011;24546;52.240;16.826;2022-11-18T20:28:43;23.23;;;13.35;;
38797;SDS011;24546;52.240;16.826;2022-11-18T20:33:47;22.10;;;13.32;;
38797;SDS011;24546;52.240;16.826;2022-11-18T20:38:51;23.40;;;13.63;;
38797;SDS011;24546;52.240;16.826;2022-11-18T20:43:53;19.30;;;11.32;;
38797;SDS011;24546;52.240;16.826;2022-11-18T20:48:54;20.00;;;13.07;;
38797;SDS011;24546;52.240;16.826;2022-11-18T20:53:56;19.83;;;12.10;;
38797;SDS011;24546;52.240;16.826;2022-11-18T20:58:59;20.65;;;14.15;;
38797;SDS011;24546;52.240;16.826;2022-11-18T21:04:00;25.20;;;14.15;;
38797;SDS011;24546;52.240;16.826;2022-11-18T21:09:04;22.75;;;13.43;;
38797;SDS011;24546;52.240;16.826;2022-11-18T21:14:05;25.42;;;13.77;;
38797;SDS011;24546;52.240;16.826;2022-11-18T21:19:18;29.48;;;15.90;;
38797;SDS011;24546;52.240;16.826;2022-11-18T21:24:20;25.92;;;15.70;;
38797;SDS011;24546;52.240;16.826;2022-11-18T21:29:29;24.08;;;15.57;;
38797;SDS011;24546;52.240;16.826;2022-11-18T21:34:32;21.67;;;13.63;;
38797;SDS011;24546;52.240;16.826;2022-11-18T21:39:33;25.17;;;15.27;;
38797;SDS011;24546;52.240;16.826;2022-11-18T21:44:34;24.05;;;13.10;;
38797;SDS011;24546;52.240;16.826;2022-11-18T21:49:36;19.90;;;12.48;;
38797;SDS011;24546;52.240;16.826;2022-11-18T21:54:37;20.60;;;11.95;;
38797;SDS011;24546;52.240;16.826;2022-11-18T21:59:38;22.33;;;12.05;;
38797;SDS011;24546;52.240;16.826;2022-11-18T22:04:39;22.17;;;11.73;;
38797;SDS011;24546;52.240;16.826;2022-11-18T22:09:52;23.52;;;12.73;;
38797;SDS011;24546;52.240;16.826;2022-11-18T22:14:54;20.02;;;11.73;;
38797;SDS011;24546;52.240;16.826;2022-11-18T22:19:55;20.52;;;11.43;;
38797;SDS011;24546;52.240;16.826;2022-11-18T22:24:56;22.08;;;11.70;;
38797;SDS011;24546;52.240;16.826;2022-11-18T22:29:57;20.70;;;12.27;;
38797;SDS011;24546;52.240;16.826;2022-11-18T22:34:59;21.80;;;11.85;;
38797;SDS011;24546;52.240;16.826;2022-11-18T22:40:00;21.00;;;12.02;;
38797;SDS011;24546;52.240;16.826;2022-11-18T22:45:01;20.98;;;11.05;;
38797;SDS011;24546;52.240;16.826;2022-11-18T22:50:02;20.48;;;11.85;;
38797;SDS011;24546;52.240;16.826;2022-11-18T22:55:04;15.93;;;10.40;;
38797;SDS011;24546;52.240;16.826;2022-11-18T23:00:05;19.83;;;11.48;;
38797;SDS011;24546;52.240;16.826;2022-11-18T23:05:07;19.85;;;10.85;;
38797;SDS011;24546;52.240;16.826;2022-11-18T23:10:10;20.65;;;12.70;;
38797;SDS011;24546;52.240;16.826;2022-11-18T23:15:11;19.50;;;10.30;;
38797;SDS011;24546;52.240;16.826;2022-11-18T23:20:12;21.25;;;10.77;;
38797;SDS011;24546;52.240;16.826;2022-11-18T23:25:13;22.80;;;11.68;;
38797;SDS011;24546;52.240;16.826;2022-11-18T23:30:17;19.38;;;12.25;;
38797;SDS011;24546;52.240;16.826;2022-11-18T23:35:18;20.58;;;11.95;;
38797;SDS011;24546;52.240;16.826;2022-11-18T23:40:19;23.20;;;11.90;;
38797;SDS011;24546;52.240;16.826;2022-11-18T23:45:20;21.83;;;11.57;;
38797;SDS011;24546;52.240;16.826;2022-11-18T23:50:21;21.75;;;11.98;;
38797;SDS011;24546;52.240;16.826;2022-11-18T23:55:22;20.23;;;12.45;;
